createdAt,value
2022-10-26T00:01:16.861Z,15.88
2022-10-26T00:03:45.825Z,18.33
2022-10-26T00:06:19.460Z,18.58
2022-10-26T00:08:47.613Z,16.95
2022-10-26T00:11:16.084Z,14.25
2022-10-26T00:13:44.225Z,18.92
2022-10-26T00:16:14.756Z,15.15
2022-10-26T00:18:42.229Z,18.27
2022-10-26T00:21:10.439Z,17.45
2022-10-26T00:23:38.490Z,17.92
2022-10-26T00:26:07.038Z,14.63
2022-10-26T00:28:34.551Z,15.65
2022-10-26T00:31:08.398Z,21.38
2022-10-26T00:33:36.110Z,25.48
2022-10-26T00:36:03.822Z,30.83
2022-10-26T00:38:31.327Z,25.77
2022-10-26T00:40:58.716Z,20.75
2022-10-26T00:43:26.129Z,23.75
2022-10-26T00:45:57.328Z,18.17
2022-10-26T00:48:32.669Z,17.15
2022-10-26T00:51:05.976Z,25.92
2022-10-26T00:53:33.677Z,29.40
2022-10-26T00:56:02.235Z,23.48
2022-10-26T00:58:30.231Z,28.77
2022-10-26T01:00:57.850Z,26.05
2022-10-26T01:03:25.628Z,22.73
2022-10-26T01:05:56.895Z,22.65
2022-10-26T01:08:25.636Z,19.30
2022-10-26T01:10:53.345Z,19.80
2022-10-26T01:13:21.240Z,18.25
2022-10-26T01:16:35.093Z,17.10
2022-10-26T01:19:18.637Z,18.92
2022-10-26T01:22:32.434Z,18.15
2022-10-26T01:25:13.289Z,27.73
2022-10-26T01:27:44.458Z,16.92
2022-10-26T01:30:17.127Z,24.73
2022-10-26T01:32:59.443Z,15.95
2022-10-26T01:35:34.968Z,30.10
2022-10-26T01:38:29.867Z,20.17
2022-10-26T01:41:21.469Z,26.27
2022-10-26T01:43:58.643Z,20.75
2022-10-26T01:46:29.741Z,20.45
2022-10-26T01:49:01.963Z,25.52
2022-10-26T01:51:31.889Z,19.90
2022-10-26T01:53:59.662Z,21.40
2022-10-26T01:56:34.656Z,19.67
2022-10-26T01:59:11.179Z,16.60
2022-10-26T02:01:55.312Z,19.02
2022-10-26T02:04:41.068Z,20.23
2022-10-26T02:07:18.378Z,16.65
2022-10-26T02:10:09.038Z,16.65
2022-10-26T02:13:04.592Z,17.67
2022-10-26T02:15:41.700Z,14.50
2022-10-26T02:18:51.371Z,14.77
2022-10-26T02:21:23.768Z,16.83
2022-10-26T02:23:54.735Z,20.05
2022-10-26T02:26:24.949Z,19.13
2022-10-26T02:28:57.896Z,18.27
2022-10-26T02:31:27.025Z,13.30
2022-10-26T02:33:57.837Z,16.60
2022-10-26T02:36:29.282Z,22.92
2022-10-26T02:38:58.309Z,24.37
2022-10-26T02:41:28.346Z,17.77
2022-10-26T02:44:25.889Z,17.25
2022-10-26T02:46:54.810Z,22.33
2022-10-26T02:49:22.505Z,18.30
2022-10-26T02:52:11.403Z,15.20
2022-10-26T02:55:17.549Z,16.65
2022-10-26T02:57:50.705Z,14.45
2022-10-26T03:00:19.392Z,16.02
2022-10-26T03:02:54.050Z,17.15
2022-10-26T03:05:28.321Z,16.20
2022-10-26T03:07:56.272Z,17.10
2022-10-26T03:10:23.748Z,15.20
2022-10-26T03:12:52.386Z,17.02
2022-10-26T03:15:20.189Z,15.07
2022-10-26T03:17:48.167Z,22.52
2022-10-26T03:20:16.039Z,16.15
2022-10-26T03:22:43.495Z,16.05
2022-10-26T03:25:11.108Z,20.00
2022-10-26T03:27:38.966Z,18.92
2022-10-26T03:30:07.042Z,17.63
2022-10-26T03:32:34.516Z,14.77
2022-10-26T03:35:01.891Z,12.98
2022-10-26T03:37:29.507Z,15.05
2022-10-26T03:39:56.927Z,16.65
2022-10-26T03:42:24.340Z,21.85
2022-10-26T03:44:51.877Z,18.00
2022-10-26T03:47:19.243Z,17.92
2022-10-26T03:49:46.886Z,23.63
2022-10-26T03:52:14.295Z,17.70
2022-10-26T03:54:41.751Z,18.20
2022-10-26T03:57:09.188Z,16.98
2022-10-26T03:59:37.274Z,14.77
2022-10-26T04:02:04.701Z,16.75
2022-10-26T04:04:32.278Z,24.10
2022-10-26T04:06:59.960Z,23.48
2022-10-26T04:09:27.315Z,22.27
2022-10-26T04:11:54.651Z,24.73
2022-10-26T04:14:22.244Z,28.25
2022-10-26T04:16:49.737Z,23.67
2022-10-26T04:19:17.123Z,22.13
2022-10-26T04:21:44.581Z,17.05
2022-10-26T04:24:12.416Z,17.03
2022-10-26T04:26:40.075Z,16.20
2022-10-26T04:29:07.829Z,21.80
2022-10-26T04:31:35.304Z,21.75
2022-10-26T04:34:02.830Z,23.42
2022-10-26T04:36:30.658Z,24.17
2022-10-26T04:38:58.041Z,21.10
2022-10-26T04:41:25.477Z,21.02
2022-10-26T04:43:52.839Z,18.73
2022-10-26T04:46:20.226Z,23.73
2022-10-26T04:48:50.760Z,22.08
2022-10-26T04:51:18.277Z,20.27
2022-10-26T04:53:45.707Z,20.35
2022-10-26T04:56:13.169Z,21.40
2022-10-26T04:58:40.591Z,27.58
2022-10-26T05:01:08.090Z,18.77
2022-10-26T05:03:35.574Z,19.73
2022-10-26T05:06:03.145Z,24.75
2022-10-26T05:08:30.568Z,19.60
2022-10-26T05:10:57.988Z,18.13
2022-10-26T05:13:28.291Z,20.25
2022-10-26T05:15:55.717Z,22.20
2022-10-26T05:18:23.248Z,21.30
2022-10-26T05:20:53.587Z,21.88
2022-10-26T05:23:21.709Z,21.95
2022-10-26T05:25:49.684Z,22.35
2022-10-26T05:28:18.857Z,25.30
2022-10-26T05:30:47.181Z,24.20
2022-10-26T05:33:15.241Z,21.92
2022-10-26T05:35:43.070Z,25.98
2022-10-26T05:38:16.061Z,19.92
2022-10-26T05:40:54.705Z,17.48
2022-10-26T05:43:24.239Z,18.42
2022-10-26T05:45:52.031Z,17.73
2022-10-26T05:48:22.038Z,19.35
2022-10-26T05:50:49.482Z,33.88
2022-10-26T05:53:16.863Z,30.52
2022-10-26T05:55:44.867Z,20.88
2022-10-26T05:58:14.489Z,17.75
2022-10-26T06:01:23.258Z,21.23
2022-10-26T06:04:02.541Z,19.67
2022-10-26T06:06:42.362Z,24.90
2022-10-26T06:09:13.919Z,21.17
2022-10-26T06:11:41.899Z,19.33
2022-10-26T06:14:10.408Z,22.23
2022-10-26T06:17:04.744Z,24.55
2022-10-26T06:19:50.520Z,27.02
2022-10-26T06:22:31.271Z,21.42
2022-10-26T06:25:19.948Z,20.92
2022-10-26T06:27:57.044Z,26.73
2022-10-26T06:30:24.577Z,24.80
2022-10-26T06:33:06.001Z,28.20
2022-10-26T06:35:57.072Z,29.30
2022-10-26T06:38:27.539Z,28.80
2022-10-26T06:40:57.143Z,27.05
2022-10-26T06:43:34.047Z,25.50
2022-10-26T06:46:26.445Z,21.77
2022-10-26T06:49:18.799Z,22.98
2022-10-26T06:51:56.903Z,36.33
2022-10-26T06:54:45.599Z,34.33
2022-10-26T06:57:15.860Z,27.05
2022-10-26T06:59:50.695Z,27.35
2022-10-26T07:02:18.726Z,32.10
2022-10-26T07:04:46.556Z,39.05
2022-10-26T07:07:22.555Z,40.05
2022-10-26T07:09:50.522Z,39.35
2022-10-26T07:12:18.016Z,37.60
2022-10-26T07:14:45.474Z,41.00
2022-10-26T07:17:12.896Z,34.88
2022-10-26T07:19:44.940Z,37.13
2022-10-26T07:22:12.833Z,42.75
2022-10-26T07:24:40.487Z,38.80
2022-10-26T07:27:07.995Z,31.23
2022-10-26T07:29:35.575Z,38.85
2022-10-26T07:32:03.210Z,32.95
2022-10-26T07:34:30.674Z,32.70
2022-10-26T07:37:00.299Z,23.00
2022-10-26T07:39:27.893Z,27.73
2022-10-26T07:41:55.316Z,32.03
2022-10-26T07:44:22.831Z,26.02
2022-10-26T07:46:51.213Z,33.60
2022-10-26T07:49:19.613Z,27.83
2022-10-26T07:51:47.492Z,34.30
2022-10-26T07:54:14.936Z,40.88
2022-10-26T07:56:42.447Z,31.55
2022-10-26T07:59:13.262Z,44.83
2022-10-26T08:01:40.839Z,33.10
2022-10-26T08:04:08.494Z,32.90
2022-10-26T08:06:36.069Z,27.70
2022-10-26T08:09:03.990Z,32.90
2022-10-26T08:11:31.429Z,24.77
2022-10-26T08:13:58.878Z,29.92
2022-10-26T08:16:26.445Z,27.65
2022-10-26T08:18:53.897Z,30.98
2022-10-26T08:21:30.388Z,23.27
2022-10-26T08:26:31.190Z,22.90
2022-10-26T08:28:58.577Z,31.83
2022-10-26T08:31:26.030Z,25.02
2022-10-26T08:33:53.494Z,27.48
2022-10-26T08:36:25.104Z,23.23
2022-10-26T08:38:52.715Z,34.05
2022-10-26T08:41:43.008Z,32.80
2022-10-26T08:44:31.306Z,27.60
2022-10-26T08:47:06.555Z,30.38
2022-10-26T08:50:02.133Z,29.63
2022-10-26T08:52:50.674Z,25.13
2022-10-26T08:55:26.650Z,28.95
2022-10-26T08:57:55.035Z,27.23
2022-10-26T09:00:25.187Z,32.25
2022-10-26T09:02:54.049Z,28.27
2022-10-26T09:05:36.893Z,25.75
2022-10-26T09:08:15.015Z,26.27
2022-10-26T09:11:16.706Z,29.90
2022-10-26T09:13:55.211Z,30.25
2022-10-26T09:16:27.827Z,28.42
2022-10-26T09:19:08.861Z,31.08
2022-10-26T09:22:09.628Z,27.20
2022-10-26T09:24:47.390Z,30.08
2022-10-26T09:27:17.635Z,31.42
2022-10-26T09:29:45.386Z,32.65
2022-10-26T09:32:21.786Z,31.88
2022-10-26T09:34:56.169Z,30.98
2022-10-26T09:37:28.304Z,32.47
2022-10-26T09:43:02.448Z,31.30
2022-10-26T09:45:39.868Z,25.30
2022-10-26T09:48:20.333Z,26.08
2022-10-26T09:50:50.032Z,28.55
2022-10-26T09:53:17.532Z,26.83
2022-10-26T09:55:49.695Z,22.30
2022-10-26T10:00:47.777Z,25.42
2022-10-26T10:03:29.540Z,26.15
2022-10-26T10:06:17.522Z,27.77
2022-10-26T10:09:11.223Z,25.13
2022-10-26T10:11:46.553Z,30.05
2022-10-26T10:14:17.739Z,25.25
2022-10-26T10:17:03.412Z,28.05
2022-10-26T10:19:36.411Z,30.05
2022-10-26T10:22:18.737Z,24.23
2022-10-26T10:27:28.283Z,32.30
2022-10-26T10:30:00.006Z,26.33
2022-10-26T10:32:35.711Z,31.02
2022-10-26T10:35:24.219Z,28.50
2022-10-26T10:37:52.502Z,26.42
2022-10-26T10:40:29.343Z,28.50
2022-10-26T10:43:06.812Z,29.70
2022-10-26T10:45:36.129Z,29.15
2022-10-26T10:48:11.970Z,30.05
2022-10-26T10:50:57.579Z,28.48
2022-10-26T10:53:38.251Z,22.35
2022-10-26T10:56:40.030Z,26.98
2022-10-26T10:59:26.098Z,24.30
2022-10-26T11:02:20.065Z,22.38
2022-10-26T11:05:24.763Z,25.13
2022-10-26T11:08:15.731Z,19.77
2022-10-26T11:10:49.070Z,19.10
2022-10-26T11:13:25.939Z,17.45
2022-10-26T11:15:59.526Z,17.00
2022-10-26T11:18:57.796Z,16.85
2022-10-26T11:21:28.957Z,19.55
2022-10-26T11:24:13.114Z,22.13
2022-10-26T11:26:54.233Z,20.10
2022-10-26T11:29:54.119Z,18.50
2022-10-26T11:32:48.425Z,18.00
2022-10-26T11:35:57.912Z,25.45
2022-10-26T11:38:46.765Z,23.15
2022-10-26T11:41:55.676Z,21.20
2022-10-26T11:44:40.203Z,21.50
2022-10-26T11:47:22.753Z,23.88
2022-10-26T11:50:22.061Z,23.70
2022-10-26T11:53:01.008Z,24.00
2022-10-26T11:55:29.770Z,25.95
2022-10-26T11:57:58.684Z,22.75
2022-10-26T12:00:27.136Z,25.60
2022-10-26T12:03:08.816Z,24.00
2022-10-26T12:05:52.414Z,28.67
2022-10-26T12:08:30.948Z,28.13
2022-10-26T12:11:32.520Z,31.08
2022-10-26T12:14:28.057Z,25.65
2022-10-26T12:17:17.961Z,25.27
2022-10-26T12:20:17.658Z,29.30
2022-10-26T12:22:45.761Z,28.77
2022-10-26T12:25:16.168Z,26.98
2022-10-26T12:27:43.624Z,30.60
2022-10-26T12:30:28.159Z,25.15
2022-10-26T12:32:58.416Z,27.80
2022-10-26T12:35:40.660Z,24.55
2022-10-26T12:38:31.644Z,22.25
2022-10-26T12:41:07.429Z,28.13
2022-10-26T12:43:40.069Z,23.52
2022-10-26T12:46:13.824Z,21.63
2022-10-26T12:48:43.669Z,20.80
2022-10-26T12:51:23.072Z,24.05
2022-10-26T12:54:27.638Z,20.23
2022-10-26T12:57:24.448Z,18.92
2022-10-26T13:00:15.945Z,19.58
2022-10-26T13:03:24.979Z,19.60
2022-10-26T13:06:07.492Z,25.90
2022-10-26T13:08:47.457Z,19.98
2022-10-26T13:11:30.028Z,19.15
2022-10-26T13:14:01.189Z,16.17
2022-10-26T13:16:30.087Z,20.08
2022-10-26T13:18:59.349Z,20.23
2022-10-26T13:21:27.901Z,25.67
2022-10-26T13:23:55.806Z,17.92
2022-10-26T13:26:26.134Z,26.27
2022-10-26T13:29:00.108Z,23.60
2022-10-26T13:31:33.368Z,22.05
2022-10-26T13:34:09.707Z,22.10
2022-10-26T13:36:59.840Z,26.10
2022-10-26T13:39:32.002Z,18.40
2022-10-26T13:44:37.633Z,18.00
2022-10-26T13:47:11.239Z,23.65
2022-10-26T13:49:41.214Z,28.95
2022-10-26T13:52:24.057Z,21.85
2022-10-26T13:55:02.876Z,24.92
2022-10-26T13:57:42.949Z,24.55
2022-10-26T14:00:31.369Z,22.95
2022-10-26T14:02:58.880Z,24.63
2022-10-26T14:05:26.596Z,25.60
2022-10-26T14:07:57.587Z,30.23
2022-10-26T14:10:32.919Z,26.25
2022-10-26T14:13:01.576Z,25.42
2022-10-26T14:15:32.071Z,25.50
2022-10-26T14:18:01.731Z,29.05
2022-10-26T14:20:31.711Z,31.58
2022-10-26T14:22:59.197Z,27.77
2022-10-26T14:25:42.410Z,35.45
2022-10-26T14:28:31.910Z,32.75
2022-10-26T14:31:27.221Z,31.90
2022-10-26T14:33:56.378Z,32.45
2022-10-26T14:36:29.325Z,31.25
2022-10-26T14:39:07.905Z,30.55
2022-10-26T14:41:36.467Z,31.65
2022-10-26T14:44:04.291Z,31.10
2022-10-26T14:46:35.384Z,32.20
2022-10-26T14:49:04.039Z,30.33
2022-10-26T14:51:35.949Z,33.42
2022-10-26T14:54:04.313Z,30.27
2022-10-26T14:56:34.654Z,30.30
2022-10-26T14:59:20.732Z,34.50
2022-10-26T15:02:12.946Z,38.55
2022-10-26T15:04:42.399Z,33.75
2022-10-26T15:07:12.898Z,37.03
2022-10-26T15:09:47.354Z,33.90
2022-10-26T15:12:41.284Z,33.10
2022-10-26T15:15:14.680Z,37.40
2022-10-26T15:17:54.259Z,33.47
2022-10-26T15:20:24.492Z,30.88
2022-10-26T15:23:02.782Z,32.72
2022-10-26T15:25:33.069Z,32.20
2022-10-26T15:28:19.604Z,30.65
2022-10-26T15:31:11.939Z,38.40
2022-10-26T15:33:43.607Z,42.70
2022-10-26T15:36:23.444Z,48.05
2022-10-26T15:38:55.638Z,34.15
2022-10-26T15:44:02.759Z,34.63
2022-10-26T15:46:32.314Z,41.25
2022-10-26T15:49:02.501Z,35.55
2022-10-26T15:51:30.338Z,35.38
2022-10-26T15:53:58.630Z,35.42
2022-10-26T15:56:26.797Z,32.85
2022-10-26T15:58:54.922Z,28.35
2022-10-26T16:01:24.784Z,30.63
2022-10-26T16:03:53.167Z,31.23
2022-10-26T16:06:20.576Z,29.77
2022-10-26T16:08:53.614Z,29.65
2022-10-26T16:11:21.089Z,39.45
2022-10-26T16:16:19.343Z,33.28
2022-10-26T16:18:49.104Z,38.42
2022-10-26T16:21:19.050Z,29.33
2022-10-26T16:23:48.031Z,31.42
2022-10-26T16:26:15.900Z,33.50
2022-10-26T16:28:43.542Z,40.63
2022-10-26T16:31:13.191Z,34.45
2022-10-26T16:33:40.703Z,38.15
2022-10-26T16:36:10.492Z,33.15
2022-10-26T16:38:38.499Z,38.58
2022-10-26T16:41:13.902Z,30.30
2022-10-26T16:43:43.445Z,36.40
2022-10-26T16:46:12.432Z,36.72
2022-10-26T16:48:41.379Z,37.45
2022-10-26T16:51:17.334Z,39.13
2022-10-26T16:53:47.985Z,35.63
2022-10-26T16:56:18.141Z,34.42
2022-10-26T16:58:45.671Z,34.97
2022-10-26T17:01:18.161Z,46.72
2022-10-26T17:03:51.730Z,42.85
2022-10-26T17:06:19.732Z,47.65
2022-10-26T17:08:47.648Z,36.70
2022-10-26T17:11:18.822Z,31.98
2022-10-26T17:13:47.091Z,35.78
2022-10-26T17:16:19.697Z,29.33
2022-10-26T17:18:47.861Z,31.65
2022-10-26T17:21:17.527Z,45.67
2022-10-26T17:23:45.273Z,44.28
2022-10-26T17:26:14.179Z,55.50
2022-10-26T17:28:41.999Z,46.20
2022-10-26T17:31:12.445Z,49.20
2022-10-26T17:33:42.826Z,47.50
2022-10-26T17:36:12.608Z,50.35
2022-10-26T17:38:41.265Z,46.83
2022-10-26T17:41:10.969Z,41.90
2022-10-26T17:43:40.084Z,46.08
2022-10-26T17:46:29.080Z,40.55
2022-10-26T17:48:57.832Z,49.83
2022-10-26T17:51:26.513Z,44.90
2022-10-26T17:53:54.351Z,56.10
2022-10-26T17:56:24.243Z,47.08
2022-10-26T17:58:53.709Z,44.30
2022-10-26T18:01:21.202Z,39.47
2022-10-26T18:03:48.879Z,35.40
2022-10-26T18:06:17.486Z,36.38
2022-10-26T18:08:45.688Z,36.90
2022-10-26T18:11:19.106Z,48.08
2022-10-26T18:13:48.914Z,42.67
2022-10-26T18:16:18.097Z,41.85
2022-10-26T18:18:49.923Z,44.72
2022-10-26T18:21:19.652Z,42.88
2022-10-26T18:23:47.468Z,38.97
2022-10-26T18:26:17.534Z,49.05
2022-10-26T18:28:45.946Z,46.75
2022-10-26T18:31:15.848Z,45.30
2022-10-26T18:33:43.506Z,39.00
2022-10-26T18:36:14.127Z,43.28
2022-10-26T18:38:42.257Z,44.78
2022-10-26T18:41:13.674Z,45.30
2022-10-26T18:43:42.596Z,50.37
2022-10-26T18:46:17.739Z,47.67
2022-10-26T18:48:48.468Z,50.65
2022-10-26T18:51:19.286Z,47.10
2022-10-26T18:53:47.744Z,49.00
2022-10-26T18:56:17.819Z,44.35
2022-10-26T18:58:48.032Z,48.60
2022-10-26T19:01:27.236Z,47.67
2022-10-26T19:04:03.859Z,45.97
2022-10-26T19:06:34.311Z,41.90
2022-10-26T19:09:02.621Z,46.75
2022-10-26T19:11:30.835Z,47.83
2022-10-26T19:13:58.599Z,41.25
2022-10-26T19:16:45.547Z,40.55
2022-10-26T19:19:14.954Z,67.60
2022-10-26T19:21:42.592Z,54.35
2022-10-26T19:24:24.261Z,43.13
2022-10-26T19:26:54.089Z,47.07
2022-10-26T19:29:21.670Z,34.55
2022-10-26T19:31:52.473Z,38.65
2022-10-26T19:34:19.991Z,39.15
2022-10-26T19:36:47.746Z,35.67
2022-10-26T19:39:16.884Z,44.80
2022-10-26T19:41:45.838Z,41.10
2022-10-26T19:44:14.512Z,35.88
2022-10-26T19:46:43.288Z,45.00
2022-10-26T19:49:12.491Z,35.42
2022-10-26T19:51:40.126Z,41.53
2022-10-26T19:54:07.765Z,34.72
2022-10-26T19:56:37.002Z,39.83
2022-10-26T19:59:05.496Z,37.00
2022-10-26T20:01:33.324Z,40.55
2022-10-26T20:04:02.636Z,40.78
2022-10-26T20:06:31.060Z,36.17
2022-10-26T20:08:59.844Z,37.75
2022-10-26T20:11:27.423Z,41.22
2022-10-26T20:13:56.482Z,37.60
2022-10-26T20:16:24.667Z,52.40
2022-10-26T20:18:52.181Z,45.85
2022-10-26T20:21:19.657Z,42.30
2022-10-26T20:23:47.115Z,44.00
2022-10-26T20:26:18.904Z,48.53
2022-10-26T20:28:51.205Z,34.80
2022-10-26T20:31:19.774Z,39.78
2022-10-26T20:33:50.947Z,36.78
2022-10-26T20:36:18.553Z,38.38
2022-10-26T20:38:46.246Z,38.25
2022-10-26T20:41:14.155Z,45.55
2022-10-26T20:43:42.740Z,44.30
2022-10-26T20:46:11.826Z,50.78
2022-10-26T20:48:39.841Z,49.33
2022-10-26T20:51:15.586Z,51.58
2022-10-26T20:53:59.071Z,46.28
2022-10-26T20:58:55.904Z,31.30
2022-10-26T21:01:33.789Z,42.63
2022-10-26T21:04:03.566Z,51.75
2022-10-26T21:06:39.764Z,42.60
2022-10-26T21:09:08.664Z,46.75
2022-10-26T21:11:36.456Z,54.58
2022-10-26T21:14:05.204Z,53.85
2022-10-26T21:16:32.759Z,53.28
2022-10-26T21:19:00.378Z,58.47
2022-10-26T21:21:27.798Z,48.10
2022-10-26T21:23:55.421Z,50.80
2022-10-26T21:26:22.805Z,48.03
2022-10-26T21:28:50.353Z,59.78
2022-10-26T21:31:18.952Z,49.65
2022-10-26T21:33:47.101Z,43.05
2022-10-26T21:36:15.799Z,44.03
2022-10-26T21:38:44.683Z,45.85
2022-10-26T21:41:17.765Z,47.33
2022-10-26T21:43:48.011Z,45.80
2022-10-26T21:46:17.338Z,51.60
2022-10-26T21:48:45.794Z,47.25
2022-10-26T21:51:18.435Z,45.60
2022-10-26T21:53:46.157Z,40.53
2022-10-26T21:56:19.356Z,47.10
2022-10-26T21:58:47.680Z,52.42
2022-10-26T22:01:20.356Z,41.70
2022-10-26T22:03:48.672Z,42.15
2022-10-26T22:08:52.602Z,47.15
2022-10-26T22:11:22.998Z,44.30
2022-10-26T22:13:51.600Z,43.20
2022-10-26T22:16:28.048Z,37.80
2022-10-26T22:18:57.165Z,39.38
2022-10-26T22:21:26.914Z,43.20
2022-10-26T22:23:55.052Z,44.03
2022-10-26T22:26:24.402Z,40.47
2022-10-26T22:28:55.059Z,44.42
2022-10-26T22:31:27.405Z,44.92
2022-10-26T22:36:32.353Z,44.08
2022-10-26T22:38:59.880Z,48.70
2022-10-26T22:41:27.461Z,50.72
2022-10-26T22:43:54.960Z,51.65
2022-10-26T22:46:24.681Z,54.25
2022-10-26T22:48:59.850Z,47.97
2022-10-26T22:51:32.732Z,56.35
2022-10-26T22:54:01.894Z,51.45
2022-10-26T22:56:30.990Z,49.53
2022-10-26T22:58:58.797Z,38.00
2022-10-26T23:01:31.694Z,43.42
2022-10-26T23:04:00.046Z,37.75
2022-10-26T23:06:29.639Z,44.97
2022-10-26T23:08:57.710Z,38.15
2022-10-26T23:11:27.107Z,38.95
2022-10-26T23:13:56.135Z,43.88
2022-10-26T23:16:24.433Z,39.35
2022-10-26T23:18:55.222Z,41.80
2022-10-26T23:23:58.005Z,41.55
2022-10-26T23:26:25.943Z,48.17
2022-10-26T23:28:53.397Z,55.33
2022-10-26T23:31:28.014Z,63.38
2022-10-26T23:33:56.631Z,65.65
2022-10-26T23:36:24.600Z,52.67
2022-10-26T23:38:52.403Z,48.63
2022-10-26T23:41:19.815Z,43.25
2022-10-26T23:43:47.214Z,46.10
2022-10-26T23:46:14.767Z,42.17
2022-10-26T23:48:42.300Z,57.15
2022-10-26T23:51:09.743Z,46.03
2022-10-26T23:53:37.130Z,51.05
2022-10-26T23:56:04.735Z,58.63
2022-10-26T23:58:32.171Z,51.90
